Latest Coastal Weather Observations for Hobart

IDT60701

Issued at 11:02 pm EDT Friday 23 October 2020 (issued every 10 minutes, with the page automatically refreshed every 10 minutes)

About coastal observations | Map of coastal stations | Coastal observations for TAS | Marine services | Other Formats
Station Details ID: 094029 Name: HOBART (ELLERSLIE ROAD) Lat: -42.89 Lon: 147.33 Height: 50.5 m
Data from the previous 72 hours. | See also: Recent months at Hobart
Date/Time
EDT
Wind Sea
Height
m
Swell Vis
km
Cloud Weather Temp
°C
Press
MSL
hPa
Rain since
9am
mm
Dir  Spd
kts
Gust
kts
Height
m
Period
s
Dir
23/11:00pm SW 4 5 - - - - - - - 12.4 1004.4 0.0
23/10:30pm W 2 4 - - - - - - - 12.4 1005.0 0.0
23/10:00pm SW 5 6 - - - - - - - 12.3 1005.4 0.0
23/09:30pm SSW 4 5 - - - - - - - 12.4 1005.5 0.0
23/09:00pm SW 4 6 - - - - - - - 12.7 1005.8 0.0
23/08:30pm SSW 4 7 - - - - - - - 12.7 1005.7 0.0
23/08:00pm SSW 5 8 - - - - - - - 12.8 1005.7 0.0
23/07:30pm S 5 8 - - - - - - - 13.0 1005.5 0.0
23/07:00pm SSE 6 9 - - - - - - - 13.2 1005.7 0.0
23/06:30pm SSE 6 9 - - - - - - - 13.4 1005.7 0.0
23/06:00pm S 7 10 - - - - - - - 13.6 1005.9 0.0
23/05:30pm S 7 11 - - - - - - - 13.9 1005.6 0.0
23/05:00pm S 8 11 - - - - - - - 14.0 1005.6 0.0
23/04:30pm S 7 12 - - - - - - - 14.5 1005.8 0.0
23/04:00pm SSE 8 11 - - - - - - - 14.6 1005.8 0.0
23/03:30pm SSE 9 14 - - - - - - - 15.6 1005.8 0.0
23/03:00pm ESE 10 13 - - - - - - - 16.2 1006.2 0.0
23/02:30pm ESE 11 13 - - - - - - - 16.0 1006.5 0.0
23/02:00pm SE 9 13 - - - - - - - 16.0 1006.9 0.0
23/01:30pm ENE 8 12 - - - - - - - 17.2 1007.1 0.0
23/01:00pm NNW 5 10 - - - - - - - 17.5 1007.4 0.0
23/12:30pm N 7 11 - - - - - - - 17.8 1007.8 0.0
23/12:00pm N 9 13 - - - - - - - 17.0 1008.2 0.0
23/11:30am N 9 13 - - - - - - - 16.2 1008.5 0.0
23/11:00am NNW 10 14 - - - - - - - 15.4 1009.0 0.0
23/10:30am NNW 9 12 - - - - - - - 14.8 1009.2 0.0
23/10:00am NNW 11 13 - - - - - - - 14.4 1009.6 0.0
23/09:30am NW 9 14 - - - - - - - 14.1 1009.8 0.0
23/09:00am NNW 7 11 - - - - - - - 13.2 1009.9 0.0
23/08:30am NNW 9 14 - - - - - - - 13.1 1010.2 0.0
23/08:00am NNW 7 12 - - - - - - - 12.9 1010.5 0.0
23/07:30am N 6 8 - - - - - - - 11.8 1010.5 0.0
23/07:00am NW 5 7 - - - - - - - 10.7 1010.6 0.0
23/06:30am W 6 8 - - - - - - - 9.6 1010.6 0.0
23/06:00am W 5 6 - - - - - - - 9.3 1010.6 0.0
23/05:30am W 5 6 - - - - - - - 9.4 1010.5 0.0
23/05:00am WSW 2 4 - - - - - - - 10.0 1010.8 0.0
23/04:30am NNW 1 4 - - - - - - - 10.3 1011.0 0.0
23/04:00am NNW 2 6 - - - - - - - 10.3 1011.2 0.0
23/03:30am NNW 6 8 - - - - - - - 10.9 1011.4 0.0
23/03:00am N 4 9 - - - - - - - 11.1 1011.8 0.0
23/02:30am NNE 4 8 - - - - - - - 11.7 1012.1 0.0
23/02:00am NNE 4 6 - - - - - - - 12.0 1012.6 0.0
23/01:30am CALM 0 0 - - - - - - - 11.8 1013.3 0.0
23/01:00am SSW 2 4 - - - - - - - 11.7 1013.6 0.0
23/12:30am WSW 4 5 - - - - - - - 11.7 1014.0 0.0
23/12:00am SW 2 4 - - - - - - - 11.6 1014.3 0.0
 
Date/Time
EDT
Wind Sea
Height
m
Swell Vis
km
Cloud Weather Temp
°C
Press
MSL
hPa
Rain since
9am
mm
Dir  Spd
kts
Gust
kts
Height
m
Period
s
Dir
22/11:30pm WSW 5 7 - - - - - - - 11.5 1014.7 0.0
22/11:00pm SW 5 6 - - - - - - - 11.5 1015.1 0.0
22/10:30pm SW 6 7 - - - - - - - 11.5 1015.3 0.0
22/10:00pm SW 5 6 - - - - - - - 11.8 1015.7 0.0
22/09:30pm WSW 7 11 - - - - - - - 11.8 1015.9 0.0
22/09:00pm SW 8 11 - - - - - - - 11.8 1015.9 0.0
22/08:30pm SSW 10 14 - - - - - - - 11.8 1015.6 0.0
22/08:00pm SSW 9 13 - - - - - - - 11.8 1015.8 0.0
22/07:30pm S 8 13 - - - - - - - 11.9 1015.9 0.0
22/07:00pm S 9 13 - - - - - - - 12.0 1015.8 0.0
22/06:30pm S 11 17 - - - - - - - 12.0 1015.6 0.0
22/06:00pm S 11 17 - - - - - - - 12.3 1015.6 0.0
22/05:30pm S 11 16 - - - - - - - 12.9 1015.5 0.0
22/05:00pm S 12 17 - - - - - - - 13.1 1015.4 0.0
22/04:30pm SSE 11 15 - - - - - - - 14.1 1015.7 0.0
22/04:00pm SSE 9 14 - - - - - - - 14.3 1015.6 0.0
22/03:30pm S 11 15 - - - - - - - 14.7 1015.6 0.0
22/03:00pm SE 13 18 - - - - - - - 14.6 1015.4 0.0
22/02:30pm SE 9 13 - - - - - - - 15.3 1015.6 0.0
22/02:00pm SE 10 13 - - - - - - - 15.1 1015.8 0.0
22/01:30pm SE 10 13 - - - - - - - 14.9 1015.9 0.0
22/01:00pm SE 8 11 - - - - - - - 14.5 1016.0 0.0
22/12:30pm ESE 8 11 - - - - - - - 13.8 1016.1 0.0
22/12:00pm ESE 9 11 - - - - - - - 14.1 1016.5 0.0
22/11:30am SE 9 12 - - - - - - - 15.2 1016.7 0.0
22/11:00am ESE 7 10 - - - - - - - 13.5 1017.0 0.0
22/10:30am ESE 6 8 - - - - - - - 13.8 1017.2 0.0
22/10:00am ESE 6 8 - - - - - - - 13.4 1017.4 0.0
22/09:30am ENE 5 7 - - - - - - - 13.0 1017.5 0.0
22/09:00am E 4 6 - - - - - - - 12.2 1017.4 2.8
22/08:30am ESE 4 5 - - - - - - - 12.0 1017.4 2.8
22/08:00am CALM 0 0 - - - - - - - 11.3 1017.2 2.8
22/07:30am WSW 3 4 - - - - - - - 10.7 1017.1 2.8
22/07:00am SW 4 5 - - - - - - - 10.3 1016.7 2.8
22/06:30am WSW 5 6 - - - - - - - 10.2 1016.7 2.8
22/06:00am WSW 5 7 - - - - - - - 10.1 1016.3 2.8
22/05:30am WSW 5 7 - - - - - - - 10.4 1016.2 2.8
22/05:00am WSW 3 5 - - - - - - - 10.9 1016.1 2.8
22/04:30am W 3 5 - - - - - - - 11.1 1016.1 2.8
22/04:00am SE 2 4 - - - - - - - 11.2 1016.0 2.8
22/03:30am SSE 1 5 - - - - - - - 11.1 1015.9 2.8
22/03:00am CALM 0 0 - - - - - - Recent precip. 11.1 1015.9 2.8
22/02:30am CALM 0 0 - - - - - - - 11.0 1016.1 2.8
22/02:00am CALM 0 0 - - - - - - - 11.1 1016.2 2.6
22/01:30am W 3 4 - - - - - - - 11.1 1016.4 2.6
22/01:00am SW 4 6 - - - - - - - 10.9 1016.7 2.6
22/12:30am SSW 3 4 - - - - - - - 10.9 1016.6 2.6
22/12:00am CALM 0 0 - - - - - - Recent precip. 10.9 1016.6 2.4
 
Date/Time
EDT
Wind Sea
Height
m
Swell Vis
km
Cloud Weather Temp
°C
Press
MSL
hPa
Rain since
9am
mm
Dir  Spd
kts
Gust
kts
Height
m
Period
s
Dir
21/11:30pm CALM 0 0 - - - - - - - 10.9 1016.6 2.4
21/11:00pm S 4 6 - - - - - - - 11.1 1016.7 2.0
21/10:30pm WSW 7 12 - - - - - - - 11.6 1016.5 0.2
21/10:00pm E 2 6 - - - - - - - 11.8 1016.5 0.0
21/09:30pm WSW 5 7 - - - - - - - 11.8 1016.4 0.0
21/09:00pm S 5 8 - - - - - - - 12.2 1016.2 0.0
21/08:30pm S 5 7 - - - - - - - 12.2 1015.8 0.0
21/08:00pm SSE 7 9 - - - - - - - 12.3 1015.5 0.0
21/07:30pm SSE 10 14 - - - - - - - 12.5 1015.1 0.0
21/07:00pm SSE 9 13 - - - - - - - 13.1 1014.8 0.0
21/06:30pm SSE 9 15 - - - - - - - 13.4 1014.5 0.0
21/06:00pm SSE 7 11 - - - - - - - 13.8 1014.2 0.0
21/05:30pm SE 10 14 - - - - - - - 14.5 1013.8 0.0
21/05:00pm SE 9 13 - - - - - - - 15.8 1013.5 0.0
21/04:30pm ESE 8 10 - - - - - - - 16.1 1013.4 0.0
21/04:00pm SE 8 10 - - - - - - - 16.2 1013.5 0.0
21/03:30pm SE 9 11 - - - - - - - 16.4 1013.6 0.0
21/03:00pm ESE 7 8 - - - - - - - 16.3 1013.8 0.0
21/02:30pm E 5 8 - - - - - - - 16.8 1014.2 0.0
21/02:00pm ESE 6 10 - - - - - - - 16.4 1014.2 0.0
21/01:30pm SE 6 9 - - - - - - - 16.8 1014.1 0.0
21/01:00pm E 8 11 - - - - - - - 16.1 1014.1 0.0
21/12:30pm SE 6 8 - - - - - - - 15.3 1014.5 0.0
21/12:00pm NE 7 9 - - - - - - - 16.5 1014.7 0.0
21/11:30am ENE 7 11 - - - - - - - 16.1 1014.9 0.0
21/11:00am NE 7 10 - - - - - - - 15.8 1015.0 0.0
21/10:30am NNE 9 11 - - - - - - - 15.9 1015.2 0.0
21/10:00am NE 8 10 - - - - - - - 15.5 1015.3 0.0
21/09:30am N 6 9 - - - - - - - 14.6 1015.4 0.0
21/09:00am N 6 8 - - - - - - - 14.3 1015.9 0.0
21/08:30am NW 4 5 - - - - - - - 12.6 1015.8 0.0
21/08:00am NNW 3 5 - - - - - - - 12.5 1015.5 0.0
21/07:30am CALM 0 0 - - - - - - - 11.6 1015.6 0.0
21/07:00am W 3 6 - - - - - - - 11.1 1015.5 0.0
21/06:30am NW 4 6 - - - - - - - 11.2 1015.3 0.0
21/06:00am NNW 5 7 - - - - - - - 11.3 1014.9 0.0
21/05:30am N 3 5 - - - - - - - 11.5 1014.9 0.0
21/05:00am N 4 5 - - - - - - - 11.5 1014.6 0.0
21/04:30am CALM 0 0 - - - - - - - 11.5 1014.6 0.0
21/04:00am CALM 0 0 - - - - - - - 11.6 1014.6 0.0
21/03:30am CALM 0 0 - - - - - - - 11.5 1014.8 0.0
21/03:00am SSE 3 4 - - - - - - - 11.7 1014.9 0.0
21/02:30am SSE 3 4 - - - - - - - 11.7 1015.1 0.0
21/02:00am SSW 4 5 - - - - - - - 11.7 1015.3 0.0
21/01:30am SSW 3 4 - - - - - - - 11.6 1015.3 0.0
21/01:00am S 4 6 - - - - - - - 11.7 1015.6 0.0
21/12:30am S 4 6 - - - - - - - 11.7 1015.8 0.0
21/12:00am S 4 5 - - - - - - - 11.7 1015.9 0.0
 
Date/Time
EDT
Wind Sea
Height
m
Swell Vis
km
Cloud Weather Temp
°C
Press
MSL
hPa
Rain since
9am
mm
Dir  Spd
kts
Gust
kts
Height
m
Period
s
Dir
20/11:30pm S 5 7 - - - - - - - 11.7 1016.0 0.0

Other formats

Comma delimited format used in spreadsheet applications
http://www.bom.gov.au/fwo/IDT60701/IDT60701.94970.axf

JavaScript Object Notation format (JSON) in row-major order
http://www.bom.gov.au/fwo/IDT60701/IDT60701.94970.json

Data quality

Most of these data are generated automatically and are frequently updated. Quality checks on data are not normally performed. It is possible for incorrect values to appear. Refer to information at About Latest Weather Observations and please check the disclaimer before using these data.